createdAt,value
2023-04-29T00:01:16.540Z,83.82
2023-04-29T00:03:44.338Z,83.01
2023-04-29T00:06:11.774Z,82.85
2023-04-29T00:08:38.562Z,83.07
2023-04-29T00:11:05.347Z,82.75
2023-04-29T00:13:31.869Z,82.17
2023-04-29T00:15:58.520Z,83.16
2023-04-29T00:18:25.056Z,83.72
2023-04-29T00:20:51.709Z,83.46
2023-04-29T00:23:18.216Z,83.70
2023-04-29T00:25:44.756Z,83.95
2023-04-29T00:28:11.288Z,83.74
2023-04-29T00:30:37.795Z,83.70
2023-04-29T00:33:04.546Z,82.66
2023-04-29T00:35:31.846Z,84.05
2023-04-29T00:37:58.370Z,83.33
2023-04-29T00:40:24.931Z,83.74
2023-04-29T00:42:51.884Z,83.06
2023-04-29T00:45:18.470Z,82.94
2023-04-29T00:47:45.148Z,83.67
2023-04-29T00:50:11.879Z,83.66
2023-04-29T00:52:39.597Z,83.57
2023-04-29T00:55:08.914Z,83.58
2023-04-29T00:57:35.737Z,85.03
2023-04-29T01:00:02.793Z,84.89
2023-04-29T01:02:30.144Z,84.93
2023-04-29T01:04:57.619Z,83.75
2023-04-29T01:07:34.084Z,83.70
2023-04-29T01:10:09.574Z,83.68
2023-04-29T01:12:36.320Z,83.66
2023-04-29T01:15:10.091Z,83.96
2023-04-29T01:17:41.385Z,83.77
2023-04-29T01:20:10.326Z,84.49
2023-04-29T01:22:37.641Z,83.95
2023-04-29T01:25:05.897Z,83.68
2023-04-29T01:27:47.994Z,83.62
2023-04-29T01:30:32.942Z,84.44
2023-04-29T01:39:31.667Z,88.26
2023-04-29T01:42:06.254Z,89.70
2023-04-29T01:44:34.043Z,90.60
2023-04-29T01:47:01.324Z,93.13
2023-04-29T01:49:28.757Z,94.76
2023-04-29T01:51:55.885Z,97.04
2023-04-29T01:54:22.713Z,100.00
2023-04-29T01:56:49.596Z,100.00
2023-04-29T01:59:16.609Z,100.00
2023-04-29T02:01:43.800Z,100.00
2023-04-29T02:04:10.621Z,100.00
2023-04-29T02:06:38.404Z,100.00
2023-04-29T02:09:05.425Z,100.00
2023-04-29T02:11:32.146Z,100.00
2023-04-29T02:13:58.974Z,100.00
2023-04-29T02:16:25.586Z,100.00
2023-04-29T02:18:52.271Z,100.00
2023-04-29T02:21:19.017Z,100.00
2023-04-29T02:23:45.913Z,100.00
2023-04-29T02:26:14.040Z,100.00
2023-04-29T02:28:40.898Z,100.00
2023-04-29T02:31:07.615Z,100.00
2023-04-29T02:33:34.479Z,100.00
2023-04-29T02:36:01.206Z,100.00
2023-04-29T02:38:27.776Z,100.00
2023-04-29T02:40:54.361Z,100.00
2023-04-29T02:43:20.941Z,100.00
2023-04-29T02:45:47.493Z,100.00
2023-04-29T02:48:14.174Z,100.00
2023-04-29T02:50:40.725Z,100.00
2023-04-29T02:53:07.362Z,100.00
2023-04-29T02:55:34.207Z,100.00
2023-04-29T02:58:01.343Z,100.00
2023-04-29T03:00:27.879Z,100.00
2023-04-29T03:02:54.465Z,100.00
2023-04-29T03:05:21.070Z,100.00
2023-04-29T03:07:47.581Z,100.00
2023-04-29T03:10:14.033Z,100.00
2023-04-29T03:12:40.959Z,100.00
2023-04-29T03:15:07.995Z,100.00
2023-04-29T03:17:34.893Z,100.00
2023-04-29T03:20:01.706Z,100.00
2023-04-29T03:22:28.202Z,100.00
2023-04-29T03:24:54.717Z,100.00
2023-04-29T03:27:21.176Z,100.00
2023-04-29T03:29:47.622Z,100.00
2023-04-29T03:32:14.071Z,100.00
2023-04-29T03:34:40.747Z,100.00
2023-04-29T03:37:07.229Z,100.00
2023-04-29T03:39:33.735Z,100.00
2023-04-29T03:42:00.196Z,100.00
2023-04-29T03:44:27.257Z,100.00
2023-04-29T03:46:53.898Z,100.00
2023-04-29T03:49:20.428Z,100.00
2023-04-29T03:51:47.184Z,100.00
2023-04-29T03:54:13.776Z,100.00
2023-04-29T03:56:41.048Z,100.00
2023-04-29T03:59:07.647Z,100.00
2023-04-29T04:01:34.161Z,100.00
2023-04-29T04:04:00.863Z,100.00
2023-04-29T04:06:27.465Z,100.00
2023-04-29T04:08:54.655Z,100.00
2023-04-29T04:11:21.127Z,100.00
2023-04-29T04:13:47.580Z,100.00
2023-04-29T04:16:14.063Z,100.00
2023-04-29T04:18:40.694Z,100.00
2023-04-29T04:21:08.730Z,100.00
2023-04-29T04:23:35.344Z,100.00
2023-04-29T04:26:01.981Z,100.00
2023-04-29T04:28:28.484Z,100.00
2023-04-29T04:30:55.005Z,100.00
2023-04-29T04:33:21.484Z,100.00
2023-04-29T04:35:48.112Z,100.00
2023-04-29T04:38:15.209Z,100.00
2023-04-29T04:40:42.309Z,100.00
2023-04-29T04:43:08.734Z,100.00
2023-04-29T04:45:36.610Z,100.00
2023-04-29T04:48:03.510Z,100.00
2023-04-29T04:50:30.415Z,100.00
2023-04-29T04:52:57.163Z,100.00
2023-04-29T04:55:23.977Z,100.00
2023-04-29T04:57:50.989Z,100.00
2023-04-29T05:00:17.951Z,100.00
2023-04-29T05:02:44.472Z,100.00
2023-04-29T05:05:11.449Z,100.00
2023-04-29T05:07:37.894Z,100.00
2023-04-29T05:10:06.491Z,100.00
2023-04-29T05:12:35.224Z,100.00
2023-04-29T05:15:02.361Z,100.00
2023-04-29T05:17:28.974Z,100.00
2023-04-29T05:19:55.720Z,100.00
2023-04-29T05:22:22.338Z,100.00
2023-04-29T05:24:49.065Z,100.00
2023-04-29T05:27:15.686Z,100.00
2023-04-29T05:29:42.249Z,100.00
2023-04-29T05:32:08.818Z,100.00
2023-04-29T05:34:35.535Z,100.00
2023-04-29T05:37:02.230Z,100.00
2023-04-29T05:39:28.721Z,100.00
2023-04-29T05:41:55.395Z,100.00
2023-04-29T05:44:21.874Z,100.00
2023-04-29T05:46:48.827Z,100.00
2023-04-29T05:49:15.989Z,100.00
2023-04-29T05:51:42.973Z,100.00
2023-04-29T05:54:09.485Z,100.00
2023-04-29T05:56:36.049Z,100.00
2023-04-29T05:59:02.526Z,100.00
2023-04-29T06:01:29.458Z,100.00
2023-04-29T06:03:56.700Z,100.00
2023-04-29T06:06:23.413Z,100.00
2023-04-29T06:08:49.972Z,98.69
2023-04-29T06:11:17.046Z,97.63
2023-04-29T06:13:43.664Z,99.10
2023-04-29T06:16:11.793Z,99.46
2023-04-29T06:18:38.546Z,99.93
2023-04-29T06:21:05.484Z,99.65
2023-04-29T06:23:32.822Z,99.72
2023-04-29T06:25:59.306Z,99.72
2023-04-29T06:28:25.893Z,98.53
2023-04-29T06:30:52.329Z,98.27
2023-04-29T06:33:18.825Z,97.64
2023-04-29T06:35:45.403Z,97.27
2023-04-29T06:38:12.090Z,94.11
2023-04-29T06:40:38.538Z,92.70
2023-04-29T06:43:05.453Z,93.33
2023-04-29T06:45:32.694Z,94.11
2023-04-29T06:47:59.381Z,95.04
2023-04-29T06:50:26.329Z,96.25
2023-04-29T06:52:53.127Z,96.28
2023-04-29T06:55:19.657Z,96.66
2023-04-29T06:57:46.409Z,97.69
2023-04-29T07:00:13.311Z,96.04
2023-04-29T07:02:39.937Z,97.46
2023-04-29T07:05:07.558Z,96.86
2023-04-29T07:07:34.317Z,96.44
2023-04-29T07:10:00.886Z,95.41
2023-04-29T07:12:27.629Z,95.81
2023-04-29T07:14:54.235Z,95.13
2023-04-29T07:17:20.893Z,94.84
2023-04-29T07:19:47.723Z,95.60
2023-04-29T07:22:14.216Z,96.56
2023-04-29T07:24:41.528Z,97.57
2023-04-29T07:27:08.049Z,98.15
2023-04-29T07:29:35.137Z,100.00
2023-04-29T07:32:02.044Z,100.00
2023-04-29T07:34:28.483Z,100.00
2023-04-29T07:36:56.253Z,100.00
2023-04-29T07:39:22.884Z,100.00
2023-04-29T07:41:49.408Z,100.00
2023-04-29T07:44:16.313Z,98.68
2023-04-29T07:46:42.818Z,97.58
2023-04-29T07:49:10.355Z,96.96
2023-04-29T07:51:37.146Z,97.08
2023-04-29T07:54:04.666Z,98.56
2023-04-29T07:56:31.280Z,99.88
2023-04-29T07:58:59.901Z,98.79
2023-04-29T08:01:26.864Z,99.61
2023-04-29T08:03:53.504Z,99.93
2023-04-29T08:06:22.204Z,99.46
2023-04-29T08:08:49.032Z,99.94
2023-04-29T08:11:19.771Z,100.00
2023-04-29T08:13:46.767Z,96.40
2023-04-29T08:16:13.844Z,91.98
2023-04-29T08:18:40.598Z,90.52
2023-04-29T08:21:07.484Z,90.04
2023-04-29T08:23:34.204Z,89.33
2023-04-29T08:26:01.194Z,89.00
2023-04-29T08:28:28.078Z,86.92
2023-04-29T08:30:55.572Z,89.70
2023-04-29T08:33:22.314Z,88.26
2023-04-29T08:35:48.939Z,89.02
2023-04-29T08:38:16.849Z,88.60
2023-04-29T08:40:48.960Z,88.90
2023-04-29T08:43:16.151Z,89.37
2023-04-29T08:45:43.423Z,86.59
2023-04-29T08:48:10.446Z,88.17
2023-04-29T08:50:41.736Z,86.74
2023-04-29T08:53:09.376Z,87.79
2023-04-29T08:55:37.710Z,87.15
2023-04-29T08:58:04.729Z,89.32
2023-04-29T09:00:32.626Z,88.73
2023-04-29T09:03:01.024Z,89.64
2023-04-29T09:05:28.284Z,90.15
2023-04-29T09:07:59.611Z,89.72
2023-04-29T09:10:26.465Z,89.88
2023-04-29T09:12:56.489Z,88.01
2023-04-29T09:15:23.007Z,88.65
2023-04-29T09:17:50.118Z,86.84
2023-04-29T09:20:22.533Z,87.55
2023-04-29T09:23:07.270Z,89.30
2023-04-29T09:25:34.455Z,89.86
2023-04-29T09:28:14.943Z,90.60
2023-04-29T09:30:47.673Z,90.39
2023-04-29T09:33:15.333Z,89.19
2023-04-29T09:35:42.021Z,88.69
2023-04-29T09:38:13.275Z,89.78
2023-04-29T09:40:57.261Z,88.96
2023-04-29T09:43:25.311Z,88.54
2023-04-29T09:45:52.213Z,87.94
2023-04-29T09:48:18.889Z,85.44
2023-04-29T09:50:59.697Z,85.29
2023-04-29T09:53:31.699Z,84.88
2023-04-29T09:56:01.144Z,83.28
2023-04-29T09:58:37.380Z,83.27
2023-04-29T10:01:04.791Z,83.51
2023-04-29T10:03:37.188Z,81.33
2023-04-29T10:06:05.631Z,79.45
2023-04-29T10:08:33.144Z,80.37
2023-04-29T10:11:03.928Z,80.61
2023-04-29T10:13:31.432Z,81.65
2023-04-29T10:16:02.050Z,77.10
2023-04-29T10:18:41.573Z,78.82
2023-04-29T10:21:11.514Z,78.30
2023-04-29T10:23:38.105Z,77.49
2023-04-29T10:26:06.211Z,79.53
2023-04-29T10:28:33.061Z,79.57
2023-04-29T10:31:05.027Z,78.87
2023-04-29T10:33:35.663Z,77.85
2023-04-29T10:36:03.256Z,77.86
2023-04-29T10:38:34.963Z,77.52
2023-04-29T10:41:04.357Z,76.39
2023-04-29T10:43:31.963Z,75.17
2023-04-29T10:46:21.967Z,70.50
2023-04-29T10:48:55.367Z,68.98
2023-04-29T10:51:31.562Z,68.59
2023-04-29T10:53:59.188Z,69.06
2023-04-29T10:56:37.773Z,70.38
2023-04-29T10:59:05.278Z,71.89
2023-04-29T11:01:43.000Z,72.10
2023-04-29T11:04:10.963Z,73.45
2023-04-29T11:06:37.753Z,73.55
2023-04-29T11:09:09.024Z,71.78
2023-04-29T11:11:49.242Z,73.76
2023-04-29T11:14:21.133Z,73.46
2023-04-29T11:16:49.769Z,75.50
2023-04-29T11:19:17.490Z,74.83
2023-04-29T11:21:45.922Z,75.37
2023-04-29T11:24:15.513Z,73.60
2023-04-29T11:26:43.243Z,71.37
2023-04-29T11:29:10.820Z,69.86
2023-04-29T11:31:39.349Z,67.74
2023-04-29T11:34:07.337Z,67.12
2023-04-29T11:36:34.931Z,65.57
2023-04-29T11:39:03.546Z,65.60
2023-04-29T11:41:31.528Z,65.16
2023-04-29T11:43:59.953Z,64.54
2023-04-29T11:46:30.970Z,59.65
2023-04-29T11:48:57.726Z,57.68
2023-04-29T11:51:24.347Z,54.25
2023-04-29T11:53:51.537Z,55.11
2023-04-29T11:56:22.955Z,58.40
2023-04-29T11:58:49.753Z,60.31
2023-04-29T12:01:16.267Z,62.69
2023-04-29T12:03:44.017Z,62.14
2023-04-29T12:06:10.932Z,63.27
2023-04-29T12:08:37.408Z,63.33
2023-04-29T12:11:06.939Z,64.36
2023-04-29T12:13:36.125Z,65.28
2023-04-29T12:16:03.575Z,66.26
2023-04-29T12:18:31.086Z,68.12
2023-04-29T12:20:58.283Z,67.05
2023-04-29T12:23:28.675Z,68.59
2023-04-29T12:25:58.989Z,68.72
2023-04-29T12:28:25.820Z,68.25
2023-04-29T12:30:56.760Z,68.34
2023-04-29T12:33:25.051Z,69.88
2023-04-29T12:35:52.713Z,69.96
2023-04-29T12:38:27.834Z,70.81
2023-04-29T12:40:55.900Z,69.69
2023-04-29T12:43:29.495Z,67.37
2023-04-29T12:46:03.535Z,68.17
2023-04-29T12:48:34.403Z,69.77
2023-04-29T12:51:04.641Z,71.44
2023-04-29T12:53:31.509Z,73.68
2023-04-29T12:55:58.303Z,74.31
2023-04-29T12:58:25.114Z,74.83
2023-04-29T13:00:51.842Z,75.14
2023-04-29T13:03:21.338Z,75.66
2023-04-29T13:05:51.406Z,76.07
2023-04-29T13:08:18.237Z,76.45
2023-04-29T13:10:44.762Z,77.00
2023-04-29T13:13:11.856Z,76.80
2023-04-29T13:15:41.336Z,77.56
2023-04-29T13:18:08.043Z,79.29
2023-04-29T13:20:41.063Z,79.92
2023-04-29T13:23:09.156Z,79.49
2023-04-29T13:25:35.934Z,79.89
2023-04-29T13:28:02.840Z,80.98
2023-04-29T13:30:29.384Z,81.59
2023-04-29T13:33:01.246Z,82.18
2023-04-29T13:35:36.093Z,83.07
2023-04-29T13:38:02.862Z,83.82
2023-04-29T13:40:29.500Z,83.33
2023-04-29T13:43:04.301Z,83.99
2023-04-29T13:45:38.832Z,84.19
2023-04-29T13:48:20.181Z,83.94
2023-04-29T13:53:50.055Z,83.12
2023-04-29T13:59:11.746Z,83.09
2023-04-29T14:02:13.346Z,83.24
2023-04-29T14:04:11.370Z,81.45
2023-04-29T14:06:38.148Z,82.48
2023-04-29T14:09:04.680Z,82.09
2023-04-29T14:11:31.255Z,81.73
2023-04-29T14:13:57.701Z,81.58
2023-04-29T14:16:24.217Z,81.74
2023-04-29T14:18:50.716Z,80.60
2023-04-29T14:21:17.275Z,80.95
2023-04-29T14:23:43.797Z,80.29
2023-04-29T14:26:27.229Z,80.21
2023-04-29T14:28:58.624Z,81.38
2023-04-29T14:31:25.677Z,80.72
2023-04-29T14:33:52.303Z,80.68
2023-04-29T14:36:19.113Z,81.47
2023-04-29T14:38:46.496Z,80.57
2023-04-29T14:41:13.341Z,81.55
2023-04-29T14:43:41.244Z,81.28
2023-04-29T14:46:08.218Z,81.24
2023-04-29T14:48:35.403Z,80.34
2023-04-29T14:51:01.970Z,80.53
2023-04-29T14:53:28.577Z,79.53
2023-04-29T14:55:55.122Z,80.66
2023-04-29T14:58:21.677Z,79.24
2023-04-29T15:00:49.359Z,78.77
2023-04-29T15:03:22.066Z,77.76
2023-04-29T15:05:51.092Z,77.96
2023-04-29T15:08:18.466Z,76.76
2023-04-29T15:10:48.384Z,77.09
2023-04-29T15:13:14.963Z,78.23
2023-04-29T15:15:41.899Z,77.74
2023-04-29T15:18:08.959Z,78.51
2023-04-29T15:20:36.689Z,78.24
2023-04-29T15:23:04.103Z,78.70
2023-04-29T15:25:31.282Z,78.28
2023-04-29T15:27:59.095Z,79.06
2023-04-29T15:30:27.147Z,77.60
2023-04-29T15:32:55.262Z,77.59
2023-04-29T15:35:22.061Z,77.61
2023-04-29T15:37:48.678Z,77.84
2023-04-29T15:40:16.493Z,76.45
2023-04-29T15:42:43.590Z,76.43
2023-04-29T15:45:10.806Z,75.06
2023-04-29T15:47:37.238Z,75.92
2023-04-29T15:50:03.923Z,75.43
2023-04-29T15:52:30.489Z,76.42
2023-04-29T15:54:58.510Z,75.73
2023-04-29T15:57:25.940Z,76.15
2023-04-29T15:59:52.737Z,76.37
2023-04-29T16:02:20.407Z,77.40
2023-04-29T16:04:46.966Z,77.22
2023-04-29T16:07:13.525Z,77.45
2023-04-29T16:09:40.117Z,78.32
2023-04-29T16:12:06.507Z,78.45
2023-04-29T16:14:32.938Z,77.02
2023-04-29T16:17:00.479Z,77.72
2023-04-29T16:19:27.079Z,77.83
2023-04-29T16:21:53.525Z,77.00
2023-04-29T16:24:19.916Z,76.89
2023-04-29T16:26:48.058Z,77.76
2023-04-29T16:29:15.026Z,77.86
2023-04-29T16:31:41.949Z,77.55
2023-04-29T16:34:08.533Z,77.17
2023-04-29T16:36:35.350Z,78.04
2023-04-29T16:39:04.088Z,76.61
2023-04-29T16:41:31.399Z,77.30
2023-04-29T16:43:58.366Z,77.77
2023-04-29T16:46:24.979Z,77.68
2023-04-29T16:48:56.501Z,78.00
2023-04-29T16:51:25.496Z,77.95
2023-04-29T16:53:55.020Z,77.59
2023-04-29T16:56:24.464Z,77.55
2023-04-29T16:58:51.097Z,76.73
2023-04-29T17:11:19.909Z,76.77
2023-04-29T17:13:47.014Z,77.04
2023-04-29T17:16:16.825Z,77.63
2023-04-29T17:18:44.017Z,78.26
2023-04-29T17:21:11.156Z,78.72
2023-04-29T17:23:38.319Z,77.63
2023-04-29T17:26:07.471Z,78.99
2023-04-29T17:28:34.289Z,79.03
2023-04-29T17:31:02.390Z,79.30
2023-04-29T17:33:34.279Z,78.78
2023-04-29T17:36:04.606Z,78.81
2023-04-29T17:38:35.169Z,78.57
2023-04-29T17:41:03.568Z,78.84
2023-04-29T17:43:33.208Z,79.85
2023-04-29T17:46:00.088Z,78.83
2023-04-29T17:48:30.118Z,80.22
2023-04-29T17:50:56.919Z,79.55
2023-04-29T17:53:23.552Z,80.24
2023-04-29T17:55:50.480Z,79.25
2023-04-29T17:58:17.493Z,80.50
2023-04-29T18:00:45.744Z,80.83
2023-04-29T18:03:12.422Z,79.80
2023-04-29T18:05:39.062Z,80.79
2023-04-29T18:08:05.666Z,80.48
2023-04-29T18:10:32.308Z,80.34
2023-04-29T18:12:58.826Z,80.30
2023-04-29T18:15:25.684Z,80.85
2023-04-29T18:17:54.269Z,81.81
2023-04-29T18:20:22.419Z,81.44
2023-04-29T18:22:50.482Z,81.29
2023-04-29T18:25:17.586Z,81.32
2023-04-29T18:27:44.484Z,81.60
2023-04-29T18:30:11.481Z,81.81
2023-04-29T18:32:38.711Z,82.31
2023-04-29T18:35:06.097Z,81.60
2023-04-29T18:37:33.075Z,81.96
2023-04-29T18:39:59.672Z,81.38
2023-04-29T18:42:26.683Z,81.66
2023-04-29T18:44:53.243Z,82.44
2023-04-29T18:47:19.987Z,82.84
2023-04-29T18:49:46.736Z,82.73
2023-04-29T18:52:13.420Z,82.14
2023-04-29T18:54:40.020Z,82.13
2023-04-29T18:57:06.870Z,81.88
2023-04-29T18:59:35.929Z,82.56
2023-04-29T19:02:02.735Z,81.81
2023-04-29T19:04:30.742Z,82.11
2023-04-29T19:06:57.897Z,82.11
2023-04-29T19:09:24.457Z,83.13
2023-04-29T19:11:51.023Z,82.45
2023-04-29T19:14:17.988Z,82.98
2023-04-29T19:16:44.550Z,82.71
2023-04-29T19:19:12.120Z,83.00
2023-04-29T19:21:38.856Z,83.85
2023-04-29T19:24:05.808Z,83.61
2023-04-29T19:26:35.037Z,83.39
2023-04-29T19:29:03.666Z,83.12
2023-04-29T19:31:30.546Z,83.35
2023-04-29T19:33:57.220Z,84.42
2023-04-29T19:36:23.765Z,83.93
2023-04-29T19:38:50.466Z,83.26
2023-04-29T19:41:17.573Z,83.73
2023-04-29T19:43:44.465Z,83.69
2023-04-29T19:46:14.692Z,83.90
2023-04-29T19:48:41.729Z,83.60
2023-04-29T19:51:08.987Z,84.10
2023-04-29T19:53:36.421Z,83.29
2023-04-29T19:56:03.163Z,83.81
2023-04-29T19:58:30.349Z,83.25
2023-04-29T20:00:57.071Z,83.49
2023-04-29T20:03:23.938Z,84.11
2023-04-29T20:05:50.663Z,83.89
2023-04-29T20:08:17.164Z,84.28
2023-04-29T20:10:43.613Z,83.86
2023-04-29T20:13:10.038Z,84.25
2023-04-29T20:15:37.527Z,83.68
2023-04-29T20:18:04.366Z,84.27
2023-04-29T20:20:30.973Z,84.90
2023-04-29T20:23:00.252Z,84.54
2023-04-29T20:25:27.507Z,85.31
2023-04-29T20:27:54.554Z,84.21
2023-04-29T20:30:21.596Z,84.36
2023-04-29T20:32:48.380Z,84.29
2023-04-29T20:35:15.837Z,83.72
2023-04-29T20:37:42.382Z,83.76
2023-04-29T20:40:09.816Z,84.17
2023-04-29T20:42:36.546Z,83.58
2023-04-29T20:45:03.445Z,83.96
2023-04-29T20:47:30.071Z,84.08
2023-04-29T20:49:57.078Z,84.27
2023-04-29T20:52:24.221Z,83.35
2023-04-29T20:54:52.698Z,83.21
2023-04-29T20:57:19.277Z,82.88
2023-04-29T20:59:45.850Z,82.21
2023-04-29T21:02:12.428Z,82.10
2023-04-29T21:04:39.069Z,82.71
2023-04-29T21:07:08.292Z,82.20
2023-04-29T21:09:35.791Z,81.52
2023-04-29T21:12:05.337Z,82.59
2023-04-29T21:14:35.435Z,81.77
2023-04-29T21:17:01.936Z,81.87
2023-04-29T21:19:28.483Z,81.97
2023-04-29T21:21:54.999Z,81.86
2023-04-29T21:24:21.609Z,81.21
2023-04-29T21:26:50.333Z,81.44
2023-04-29T21:29:16.805Z,81.35
2023-04-29T21:31:43.743Z,81.90
2023-04-29T21:34:10.293Z,80.91
2023-04-29T21:36:37.053Z,81.98
2023-04-29T21:39:03.727Z,81.94
2023-04-29T21:41:32.128Z,81.79
2023-04-29T21:43:59.513Z,81.76
2023-04-29T21:46:27.804Z,81.67
2023-04-29T21:48:56.310Z,82.07
2023-04-29T21:51:23.068Z,82.00
2023-04-29T21:53:50.754Z,81.87
2023-04-29T21:56:19.310Z,81.60
2023-04-29T21:58:46.190Z,80.97
2023-04-29T22:01:26.693Z,81.28
2023-04-29T22:03:55.797Z,81.44
2023-04-29T22:06:22.822Z,81.60
2023-04-29T22:08:49.722Z,81.88
2023-04-29T22:11:21.734Z,82.22
2023-04-29T22:13:48.717Z,82.79
2023-04-29T22:16:15.694Z,82.68
2023-04-29T22:18:42.403Z,82.56
2023-04-29T22:21:08.963Z,82.36
2023-04-29T22:23:35.468Z,83.06
2023-04-29T22:26:01.942Z,83.31
2023-04-29T22:28:28.497Z,82.79
2023-04-29T22:30:55.053Z,82.80
2023-04-29T22:33:22.479Z,83.36
2023-04-29T22:35:48.980Z,83.50
2023-04-29T22:38:15.599Z,83.91
2023-04-29T22:40:42.148Z,82.50
2023-04-29T22:43:08.655Z,81.99
2023-04-29T22:45:35.399Z,82.34
2023-04-29T22:48:02.146Z,82.58
2023-04-29T22:50:28.712Z,82.25
2023-04-29T22:52:55.178Z,82.40
2023-04-29T22:55:21.717Z,82.11
2023-04-29T22:57:50.892Z,82.21
2023-04-29T23:00:17.466Z,82.16
2023-04-29T23:02:44.034Z,82.92
2023-04-29T23:05:10.525Z,82.36
2023-04-29T23:07:37.100Z,82.99
2023-04-29T23:10:03.843Z,82.05
2023-04-29T23:12:30.576Z,82.68
2023-04-29T23:14:57.490Z,82.64
2023-04-29T23:17:24.768Z,83.03
2023-04-29T23:19:51.491Z,83.17
2023-04-29T23:22:18.057Z,82.80
2023-04-29T23:24:45.299Z,83.17
2023-04-29T23:27:12.181Z,82.59
2023-04-29T23:29:41.644Z,83.34
2023-04-29T23:32:08.679Z,82.72
2023-04-29T23:34:35.608Z,83.03
2023-04-29T23:37:02.490Z,83.28
2023-04-29T23:39:29.011Z,83.21
2023-04-29T23:41:56.446Z,83.75
2023-04-29T23:44:25.340Z,83.63
2023-04-29T23:46:52.064Z,82.97
2023-04-29T23:49:19.336Z,82.78
2023-04-29T23:51:45.830Z,83.56
2023-04-29T23:54:12.335Z,82.75
2023-04-29T23:56:38.906Z,83.02
2023-04-29T23:59:05.515Z,83.18
